Cotuit, Massachusetts
Current Conditions -  °F | °C
As of 10:55 AM on Sunday 21 Dec 2014 (Local Time) from KFMH Reporting Station
Overcast Overcast  
Wind Chill: 37°   Ceiling: 4800
Heat Index: 41°   Visibility: 10mi
Dew Point: 36°   Wind: 6mph
Humidity: 81%   Direction: 60°ENE
Pressure: 30.28"   Gusts: NA
Location:  41.62°N, 70.44°W
Report Text: KFMH 211555Z AUTO 06005KT 10SM FEW018 OVC048 05/02 A3028 RMK AO2
Loading
Personal Weather Stations






























Interactive Weather Map New forecast layout! Learn more

10-Day Weather Forecast

Advertisements
Track Severe Weather on mobile